createdAt,value
2018-10-06T00:00:22.134Z,85.73
2018-10-06T00:02:51.777Z,86.18
2018-10-06T00:05:22.294Z,86.38
2018-10-06T00:07:52.116Z,86.51
2018-10-06T00:10:23.262Z,86.17
2018-10-06T00:12:53.264Z,86.71
2018-10-06T00:15:22.809Z,86.75
2018-10-06T00:17:52.264Z,86.82
2018-10-06T00:20:21.882Z,87.02
2018-10-06T00:22:51.788Z,86.73
2018-10-06T00:25:21.594Z,86.69
2018-10-06T00:27:51.112Z,86.80
2018-10-06T00:30:20.802Z,87.09
2018-10-06T00:32:56.964Z,87.35
2018-10-06T00:35:26.502Z,87.38
2018-10-06T00:37:56.282Z,87.47
2018-10-06T00:40:25.688Z,87.72
2018-10-06T00:42:56.754Z,87.54
2018-10-06T00:45:26.748Z,88.27
2018-10-06T00:47:56.757Z,88.40
2018-10-06T00:50:26.560Z,88.31
2018-10-06T00:52:56.345Z,88.31
2018-10-06T00:55:25.979Z,88.66
2018-10-06T00:57:55.891Z,88.74
2018-10-06T01:00:25.702Z,88.81
2018-10-06T01:02:56.540Z,89.03
2018-10-06T01:05:25.941Z,88.99
2018-10-06T01:07:56.984Z,89.35
2018-10-06T01:10:30.375Z,89.66
2018-10-06T01:13:01.939Z,89.43
2018-10-06T01:15:31.665Z,89.57
2018-10-06T01:18:01.338Z,89.77
2018-10-06T01:20:31.298Z,89.97
2018-10-06T01:23:01.557Z,90.41
2018-10-06T01:25:31.394Z,90.55
2018-10-06T01:28:01.970Z,90.66
2018-10-06T01:30:47.143Z,90.37
2018-10-06T01:33:18.962Z,90.55
2018-10-06T01:35:50.986Z,90.46
2018-10-06T01:38:21.135Z,90.43
2018-10-06T01:40:51.578Z,90.47
2018-10-06T01:43:21.183Z,90.81
2018-10-06T01:45:50.774Z,90.59
2018-10-06T01:48:21.481Z,90.63
2018-10-06T01:50:52.080Z,90.68
2018-10-06T01:53:22.309Z,90.65
2018-10-06T01:55:51.973Z,90.37
2018-10-06T01:58:22.293Z,90.52
2018-10-06T02:00:51.716Z,90.40
2018-10-06T02:03:21.220Z,90.51
2018-10-06T02:05:50.726Z,90.57
2018-10-06T02:08:22.257Z,90.60
2018-10-06T02:10:51.883Z,90.36
2018-10-06T02:13:22.215Z,90.81
2018-10-06T02:16:00.039Z,90.83
2018-10-06T02:21:46.812Z,90.97
2018-10-06T02:24:21.819Z,91.44
2018-10-06T02:26:58.120Z,91.57
2018-10-06T02:29:32.513Z,91.59
2018-10-06T02:32:02.429Z,91.86
2018-10-06T02:34:32.370Z,92.18
2018-10-06T02:37:01.898Z,92.12
2018-10-06T02:39:31.359Z,92.31
2018-10-06T02:42:01.211Z,92.12
2018-10-06T02:44:31.128Z,92.20
2018-10-06T02:47:00.588Z,92.46
2018-10-06T02:49:29.933Z,92.45
2018-10-06T02:51:59.447Z,92.63
2018-10-06T02:54:28.904Z,92.80
2018-10-06T02:56:59.178Z,92.61
2018-10-06T02:59:28.845Z,92.40
2018-10-06T03:01:58.321Z,92.78
2018-10-06T03:04:28.442Z,92.64
2018-10-06T03:06:58.007Z,92.56
2018-10-06T03:09:27.461Z,92.65
2018-10-06T03:11:56.854Z,92.55
2018-10-06T03:14:26.356Z,92.62
2018-10-06T03:16:55.888Z,92.56
2018-10-06T03:19:25.633Z,93.12
2018-10-06T03:21:55.029Z,93.18
2018-10-06T03:24:25.857Z,93.47
2018-10-06T03:26:55.849Z,93.24
2018-10-06T03:29:26.781Z,93.10
2018-10-06T03:31:56.180Z,93.40
2018-10-06T03:34:25.576Z,93.21
2018-10-06T03:36:55.152Z,93.34
2018-10-06T03:39:24.679Z,93.36
2018-10-06T03:41:54.037Z,93.29
2018-10-06T03:44:24.209Z,93.28
2018-10-06T03:46:54.308Z,93.45
2018-10-06T03:49:24.755Z,93.53
2018-10-06T03:51:54.174Z,93.65
2018-10-06T03:54:23.775Z,93.43
2018-10-06T03:56:53.155Z,93.65
2018-10-06T03:59:22.859Z,93.64
2018-10-06T04:01:52.180Z,93.86
2018-10-06T04:04:21.659Z,93.90
2018-10-06T04:06:51.643Z,93.94
2018-10-06T04:09:21.932Z,93.56
2018-10-06T04:11:51.307Z,93.91
2018-10-06T04:14:22.065Z,94.03
2018-10-06T04:16:51.757Z,93.99
2018-10-06T04:19:21.600Z,94.19
2018-10-06T04:21:52.744Z,94.42
2018-10-06T04:24:25.993Z,94.84
2018-10-06T04:26:56.249Z,94.67
2018-10-06T04:29:27.010Z,94.60
2018-10-06T04:31:56.504Z,94.82
2018-10-06T04:34:26.256Z,94.64
2018-10-06T04:36:56.298Z,95.16
2018-10-06T04:39:27.562Z,94.62
2018-10-06T04:41:58.001Z,94.91
2018-10-06T04:44:28.225Z,94.76
2018-10-06T04:46:57.820Z,95.26
2018-10-06T04:49:28.047Z,95.40
2018-10-06T04:51:57.451Z,95.26
2018-10-06T04:54:27.349Z,95.26
2018-10-06T04:56:57.707Z,95.40
2018-10-06T04:59:27.388Z,95.54
2018-10-06T05:01:57.206Z,95.66
2018-10-06T05:04:26.953Z,95.47
2018-10-06T05:06:56.586Z,95.56
2018-10-06T05:09:26.247Z,95.67
2018-10-06T05:11:55.968Z,95.75
2018-10-06T05:14:26.373Z,95.89
2018-10-06T05:16:56.424Z,96.02
2018-10-06T05:19:26.486Z,95.99
2018-10-06T05:21:56.447Z,96.08
2018-10-06T05:24:26.060Z,96.31
2018-10-06T05:26:55.665Z,96.37
2018-10-06T05:29:25.260Z,96.33
2018-10-06T05:31:55.135Z,96.58
2018-10-06T05:34:25.409Z,96.39
2018-10-06T05:36:55.506Z,96.38
2018-10-06T05:39:25.837Z,96.29
2018-10-06T05:41:56.744Z,96.57
2018-10-06T05:44:27.536Z,96.25
2018-10-06T05:46:57.625Z,96.17
2018-10-06T05:49:28.408Z,96.39
2018-10-06T05:51:58.907Z,96.32
2018-10-06T05:54:29.038Z,96.30
2018-10-06T05:56:59.682Z,96.54
2018-10-06T05:59:31.595Z,96.56
2018-10-06T06:02:02.210Z,96.16
2018-10-06T06:04:33.829Z,96.40
2018-10-06T06:07:04.054Z,96.44
2018-10-06T06:09:34.278Z,96.37
2018-10-06T06:12:04.241Z,96.25
2018-10-06T06:14:35.336Z,96.09
2018-10-06T06:17:05.040Z,96.18
2018-10-06T06:19:36.963Z,96.17
2018-10-06T06:22:07.083Z,96.03
2018-10-06T06:24:38.037Z,95.86
2018-10-06T06:27:08.713Z,95.65
2018-10-06T06:29:38.805Z,95.46
2018-10-06T06:32:10.278Z,95.40
2018-10-06T06:34:40.377Z,95.10
2018-10-06T06:37:10.796Z,95.09
2018-10-06T06:39:40.545Z,94.68
2018-10-06T06:42:11.951Z,94.63
2018-10-06T06:44:41.771Z,94.35
2018-10-06T06:47:11.692Z,94.23
2018-10-06T06:49:41.817Z,94.12
2018-10-06T06:52:13.272Z,93.98
2018-10-06T06:54:44.866Z,93.69
2018-10-06T06:57:14.645Z,93.52
2018-10-06T06:59:44.560Z,93.35
2018-10-06T07:02:14.130Z,93.08
2018-10-06T07:04:43.649Z,92.98
2018-10-06T07:07:13.161Z,92.86
2018-10-06T07:09:42.524Z,92.44
2018-10-06T07:12:12.304Z,92.36
2018-10-06T07:14:42.126Z,92.08
2018-10-06T07:17:12.762Z,92.27
2018-10-06T07:19:42.150Z,91.93
2018-10-06T07:22:12.536Z,91.71
2018-10-06T07:24:42.248Z,91.52
2018-10-06T07:27:12.647Z,91.01
2018-10-06T07:29:42.338Z,89.55
2018-10-06T07:32:12.058Z,88.55
2018-10-06T07:34:41.668Z,87.55
2018-10-06T07:37:11.888Z,87.48
2018-10-06T07:39:42.925Z,87.37
2018-10-06T07:42:13.409Z,86.89
2018-10-06T07:44:44.119Z,86.29
2018-10-06T07:47:13.991Z,85.84
2018-10-06T07:49:43.757Z,85.34
2018-10-06T07:52:13.564Z,85.19
2018-10-06T07:54:43.555Z,84.20
2018-10-06T07:57:12.996Z,84.56
2018-10-06T07:59:42.746Z,84.35
2018-10-06T08:02:13.513Z,84.04
2018-10-06T08:04:43.571Z,83.55
2018-10-06T08:07:12.979Z,82.77
2018-10-06T08:09:43.546Z,82.17
2018-10-06T08:12:15.290Z,82.20
2018-10-06T08:14:45.233Z,81.50
2018-10-06T08:17:14.902Z,81.02
2018-10-06T08:19:46.104Z,80.61
2018-10-06T08:22:15.687Z,80.38
2018-10-06T08:24:45.272Z,80.32
2018-10-06T08:27:16.155Z,79.80
2018-10-06T08:29:46.520Z,78.74
2018-10-06T08:32:16.207Z,78.17
2018-10-06T08:34:45.909Z,78.22
2018-10-06T08:37:15.303Z,77.50
2018-10-06T08:39:45.100Z,77.35
2018-10-06T08:42:14.606Z,76.73
2018-10-06T08:44:45.129Z,76.64
2018-10-06T08:47:14.936Z,76.61
2018-10-06T08:49:45.232Z,76.67
2018-10-06T08:52:14.953Z,76.24
2018-10-06T08:54:44.595Z,76.38
2018-10-06T08:57:15.657Z,75.93
2018-10-06T08:59:45.640Z,75.25
2018-10-06T09:02:16.073Z,74.90
2018-10-06T09:04:45.771Z,73.90
2018-10-06T09:07:15.746Z,73.24
2018-10-06T09:09:46.956Z,73.14
2018-10-06T09:12:16.678Z,72.81
2018-10-06T09:14:47.331Z,72.31
2018-10-06T09:17:17.749Z,72.81
2018-10-06T09:19:47.622Z,72.04
2018-10-06T09:22:17.967Z,71.58
2018-10-06T09:27:27.341Z,70.27
2018-10-06T09:29:57.838Z,70.73
2018-10-06T09:32:27.144Z,70.25
2018-10-06T09:34:57.364Z,69.62
2018-10-06T09:37:27.060Z,69.43
2018-10-06T09:39:57.184Z,69.20
2018-10-06T09:42:27.366Z,69.40
2018-10-06T09:44:57.009Z,69.29
2018-10-06T09:47:26.520Z,69.80
2018-10-06T09:49:56.203Z,69.28
2018-10-06T09:52:26.225Z,68.85
2018-10-06T09:54:55.719Z,68.99
2018-10-06T09:57:25.025Z,69.42
2018-10-06T09:59:54.431Z,68.76
2018-10-06T10:02:28.994Z,67.52
2018-10-06T10:05:03.800Z,67.44
2018-10-06T10:07:35.035Z,66.29
2018-10-06T10:10:05.345Z,65.70
2018-10-06T10:12:34.934Z,65.39
2018-10-06T10:15:04.868Z,65.05
2018-10-06T10:17:34.517Z,65.82
2018-10-06T10:20:03.785Z,65.50
2018-10-06T10:22:33.275Z,64.83
2018-10-06T10:25:03.000Z,65.34
2018-10-06T10:27:32.627Z,65.40
2018-10-06T10:30:02.715Z,65.07
2018-10-06T10:32:32.486Z,64.81
2018-10-06T10:35:02.777Z,64.84
2018-10-06T10:37:34.413Z,63.83
2018-10-06T10:40:03.900Z,63.19
2018-10-06T10:42:33.518Z,62.68
2018-10-06T10:45:03.260Z,61.98
2018-10-06T10:47:32.583Z,61.72
2018-10-06T10:50:02.640Z,61.53
2018-10-06T10:52:32.064Z,62.32
2018-10-06T10:55:01.774Z,61.96
2018-10-06T10:57:31.459Z,61.37
2018-10-06T11:00:02.062Z,61.51
2018-10-06T11:02:31.370Z,60.53
2018-10-06T11:05:00.824Z,60.57
2018-10-06T11:07:30.182Z,60.99
2018-10-06T11:10:00.328Z,60.29
2018-10-06T11:12:29.702Z,59.82
2018-10-06T11:14:59.207Z,59.68
2018-10-06T11:17:29.626Z,59.68
2018-10-06T11:19:59.017Z,59.97
2018-10-06T11:22:28.479Z,59.56
2018-10-06T11:24:57.972Z,59.57
2018-10-06T11:27:27.937Z,59.29
2018-10-06T11:29:58.254Z,56.47
2018-10-06T11:32:29.685Z,56.37
2018-10-06T11:35:03.559Z,55.77
2018-10-06T11:37:33.786Z,54.53
2018-10-06T11:40:08.657Z,54.21
2018-10-06T11:42:38.961Z,53.69
2018-10-06T11:45:08.756Z,53.15
2018-10-06T11:47:38.120Z,53.17
2018-10-06T11:50:07.586Z,52.10
2018-10-06T11:52:37.006Z,51.67
2018-10-06T11:55:06.467Z,50.72
2018-10-06T11:57:36.442Z,48.32
2018-10-06T12:00:07.237Z,45.47
2018-10-06T12:02:36.981Z,42.90
2018-10-06T12:05:06.838Z,41.75
2018-10-06T12:07:36.395Z,40.29
2018-10-06T12:10:06.436Z,40.04
2018-10-06T12:12:35.894Z,38.91
2018-10-06T12:15:06.943Z,39.08
2018-10-06T12:17:36.520Z,39.53
2018-10-06T12:20:07.336Z,39.40
2018-10-06T12:22:36.858Z,37.77
2018-10-06T12:25:06.626Z,37.38
2018-10-06T12:27:37.262Z,37.17
2018-10-06T12:30:07.023Z,37.87
2018-10-06T12:32:36.547Z,37.36
2018-10-06T12:35:07.413Z,37.46
2018-10-06T12:37:37.262Z,37.26
2018-10-06T12:40:06.749Z,37.61
2018-10-06T12:42:36.083Z,36.70
2018-10-06T12:45:08.161Z,36.30
2018-10-06T12:47:37.923Z,35.70
2018-10-06T12:50:07.668Z,35.03
2018-10-06T12:52:37.320Z,35.19
2018-10-06T12:55:07.344Z,34.54
2018-10-06T12:57:37.135Z,34.28
2018-10-06T13:00:07.483Z,34.81
2018-10-06T13:02:37.457Z,35.68
2018-10-06T13:05:07.335Z,36.77
2018-10-06T13:07:37.511Z,37.28
2018-10-06T13:10:07.086Z,37.69
2018-10-06T13:12:36.688Z,38.46
2018-10-06T13:15:07.012Z,38.26
2018-10-06T13:17:36.576Z,38.37
2018-10-06T13:20:06.921Z,37.05
2018-10-06T13:22:37.451Z,36.95
2018-10-06T13:25:06.899Z,36.24
2018-10-06T13:27:38.617Z,35.39
2018-10-06T13:30:08.247Z,35.63
2018-10-06T13:32:37.749Z,34.83
2018-10-06T13:35:08.284Z,34.86
2018-10-06T13:37:39.229Z,36.40
2018-10-06T13:40:10.273Z,36.32
2018-10-06T13:42:39.775Z,36.49
2018-10-06T13:45:10.805Z,36.82
2018-10-06T13:47:40.299Z,37.28
2018-10-06T13:50:10.886Z,37.58
2018-10-06T13:52:40.638Z,37.51
2018-10-06T13:55:10.671Z,35.68
2018-10-06T13:57:40.293Z,35.35
2018-10-06T14:00:10.950Z,35.22
2018-10-06T14:02:41.487Z,34.81
2018-10-06T14:05:11.133Z,34.99
2018-10-06T14:07:40.855Z,34.95
2018-10-06T14:10:10.458Z,34.95
2018-10-06T14:12:46.006Z,35.73
2018-10-06T14:15:16.958Z,37.46
2018-10-06T14:17:47.565Z,37.97
2018-10-06T14:20:17.592Z,38.63
2018-10-06T14:22:47.999Z,39.66
2018-10-06T14:25:17.694Z,41.60
2018-10-06T14:27:47.592Z,42.88
2018-10-06T14:30:18.520Z,42.67
2018-10-06T14:32:49.159Z,43.33
2018-10-06T14:35:18.565Z,43.80
2018-10-06T14:37:48.092Z,44.01
2018-10-06T14:40:17.596Z,43.53
2018-10-06T14:42:47.063Z,42.76
2018-10-06T14:45:16.520Z,43.07
2018-10-06T14:47:46.169Z,42.89
2018-10-06T14:50:16.736Z,42.56
2018-10-06T14:52:46.535Z,42.55
2018-10-06T14:55:18.763Z,42.42
2018-10-06T14:57:48.495Z,42.62
2018-10-06T15:00:18.069Z,42.87
2018-10-06T15:02:48.683Z,42.90
2018-10-06T15:05:19.151Z,43.45
2018-10-06T15:07:48.796Z,41.90
2018-10-06T15:10:19.557Z,42.10
2018-10-06T15:12:48.892Z,41.10
2018-10-06T15:15:19.307Z,41.33
2018-10-06T15:17:49.814Z,40.97
2018-10-06T15:20:19.277Z,40.34
2018-10-06T15:22:48.820Z,40.51
2018-10-06T15:25:19.299Z,40.49
2018-10-06T15:27:49.336Z,40.47
2018-10-06T15:30:18.949Z,40.94
2018-10-06T15:32:48.277Z,41.03
2018-10-06T15:35:18.246Z,40.47
2018-10-06T15:37:47.764Z,41.28
2018-10-06T15:40:17.335Z,41.20
2018-10-06T15:42:46.932Z,41.35
2018-10-06T15:45:16.603Z,41.96
2018-10-06T15:47:46.591Z,41.94
2018-10-06T15:50:16.249Z,43.44
2018-10-06T15:52:48.018Z,42.88
2018-10-06T15:55:17.832Z,43.05
2018-10-06T15:57:52.033Z,42.73
2018-10-06T16:00:22.180Z,43.11
2018-10-06T16:02:51.653Z,43.57
2018-10-06T16:05:20.945Z,43.81
2018-10-06T16:07:50.482Z,43.70
2018-10-06T16:10:20.365Z,44.39
2018-10-06T16:12:50.608Z,44.15
2018-10-06T16:15:20.157Z,44.04
2018-10-06T16:17:50.819Z,44.36
2018-10-06T16:20:20.231Z,44.62
2018-10-06T16:22:49.610Z,45.02
2018-10-06T16:25:19.042Z,45.67
2018-10-06T16:27:48.542Z,45.31
2018-10-06T16:30:18.098Z,45.67
2018-10-06T16:32:48.314Z,46.15
2018-10-06T16:35:19.967Z,46.05
2018-10-06T16:37:49.920Z,46.48
2018-10-06T16:40:19.548Z,47.31
2018-10-06T16:42:49.113Z,48.13
2018-10-06T16:45:19.153Z,48.56
2018-10-06T16:47:48.678Z,48.65
2018-10-06T16:50:18.063Z,49.46
2018-10-06T16:52:47.569Z,48.99
2018-10-06T16:55:16.986Z,49.23
2018-10-06T16:57:46.589Z,49.63
2018-10-06T17:00:17.055Z,50.05
2018-10-06T17:02:46.481Z,50.32
2018-10-06T17:05:16.136Z,50.81
2018-10-06T17:07:45.855Z,51.96
2018-10-06T17:10:15.825Z,51.85
2018-10-06T17:12:45.706Z,52.05
2018-10-06T17:15:15.194Z,52.71
2018-10-06T17:17:44.640Z,52.22
2018-10-06T17:20:14.989Z,52.20
2018-10-06T17:22:44.769Z,52.30
2018-10-06T17:25:16.479Z,52.43
2018-10-06T17:27:46.276Z,52.29
2018-10-06T17:30:16.286Z,53.52
2018-10-06T17:32:45.980Z,53.74
2018-10-06T17:35:15.451Z,53.55
2018-10-06T17:37:45.091Z,52.95
2018-10-06T17:40:15.615Z,53.47
2018-10-06T17:42:44.960Z,52.48
2018-10-06T17:45:14.740Z,52.44
2018-10-06T17:47:44.504Z,53.30
2018-10-06T17:50:14.284Z,53.54
2018-10-06T17:52:43.923Z,52.54
2018-10-06T17:55:13.406Z,53.43
2018-10-06T17:57:43.077Z,53.71
2018-10-06T18:00:14.582Z,53.36
2018-10-06T18:02:45.201Z,53.48
2018-10-06T18:05:16.903Z,53.09
2018-10-06T18:07:50.682Z,53.74
2018-10-06T18:10:22.007Z,54.19
2018-10-06T18:12:53.991Z,53.99
2018-10-06T18:15:23.972Z,55.05
2018-10-06T18:17:54.131Z,54.08
2018-10-06T18:20:23.693Z,55.35
2018-10-06T18:22:53.432Z,55.06
2018-10-06T18:25:23.835Z,56.66
2018-10-06T18:27:53.549Z,56.88
2018-10-06T18:30:23.851Z,58.10
2018-10-06T18:32:54.568Z,59.13
2018-10-06T18:35:28.939Z,60.51
2018-10-06T18:38:00.429Z,59.57
2018-10-06T18:40:30.657Z,60.06
2018-10-06T18:43:00.650Z,60.34
2018-10-06T18:45:32.528Z,60.94
2018-10-06T18:48:04.393Z,60.81
2018-10-06T18:50:37.149Z,60.67
2018-10-06T18:53:09.338Z,60.25
2018-10-06T18:55:41.110Z,60.82
2018-10-06T18:58:14.593Z,60.86
2018-10-06T19:00:47.643Z,61.04
2018-10-06T19:03:19.127Z,61.31
2018-10-06T19:05:51.994Z,62.02
2018-10-06T19:08:22.463Z,62.16
2018-10-06T19:10:55.958Z,63.00
2018-10-06T19:13:27.609Z,63.48
2018-10-06T19:15:57.179Z,64.77
2018-10-06T19:18:28.741Z,65.61
2018-10-06T19:21:03.876Z,65.14
2018-10-06T19:23:36.591Z,64.94
2018-10-06T19:26:07.157Z,65.54
2018-10-06T19:28:37.167Z,66.65
2018-10-06T19:31:06.602Z,66.33
2018-10-06T19:33:36.202Z,66.62
2018-10-06T19:36:05.694Z,66.43
2018-10-06T19:38:35.320Z,66.59
2018-10-06T19:41:06.824Z,68.07
2018-10-06T19:43:37.273Z,68.50
2018-10-06T19:46:07.871Z,69.03
2018-10-06T19:48:39.309Z,69.85
2018-10-06T19:51:11.219Z,68.74
2018-10-06T19:53:43.051Z,68.01
2018-10-06T19:56:14.048Z,69.65
2018-10-06T19:58:44.378Z,68.27
2018-10-06T20:01:16.163Z,68.96
2018-10-06T20:03:46.494Z,69.15
2018-10-06T20:06:17.240Z,69.40
2018-10-06T20:08:47.696Z,69.00
2018-10-06T20:11:17.960Z,68.81
2018-10-06T20:13:48.576Z,69.24
2018-10-06T20:16:19.615Z,70.27
2018-10-06T20:18:50.009Z,71.25
2018-10-06T20:21:20.609Z,70.80
2018-10-06T20:23:52.089Z,71.69
2018-10-06T20:26:22.992Z,71.91
2018-10-06T20:28:53.354Z,72.40
2018-10-06T20:31:24.188Z,72.28
2018-10-06T20:33:55.331Z,70.69
2018-10-06T20:36:26.439Z,70.78
2018-10-06T20:38:56.761Z,70.37
2018-10-06T20:41:27.154Z,70.57
2018-10-06T20:43:57.448Z,70.60
2018-10-06T20:46:28.294Z,70.36
2018-10-06T20:48:59.505Z,70.64
2018-10-06T20:51:29.689Z,70.83
2018-10-06T20:54:00.197Z,72.12
2018-10-06T20:56:30.563Z,71.43
2018-10-06T20:59:01.029Z,71.52
2018-10-06T21:01:30.786Z,71.62
2018-10-06T21:04:00.403Z,72.49
2018-10-06T21:06:30.472Z,72.70
2018-10-06T21:09:00.053Z,72.70
2018-10-06T21:11:29.506Z,72.55
2018-10-06T21:13:59.098Z,73.40
2018-10-06T21:16:28.955Z,72.78
2018-10-06T21:18:58.379Z,74.05
2018-10-06T21:21:27.861Z,73.64
2018-10-06T21:23:58.474Z,72.52
2018-10-06T21:26:27.902Z,72.33
2018-10-06T21:28:57.514Z,71.24
2018-10-06T21:31:27.052Z,71.26
2018-10-06T21:33:56.741Z,71.43
2018-10-06T21:36:26.216Z,71.26
2018-10-06T21:38:56.009Z,71.31
2018-10-06T21:41:25.414Z,71.22
2018-10-06T21:43:55.167Z,71.79
2018-10-06T21:46:25.050Z,72.31
2018-10-06T21:48:55.243Z,72.70
2018-10-06T21:51:24.628Z,73.59
2018-10-06T21:53:54.104Z,74.45
2018-10-06T21:56:23.367Z,74.94
2018-10-06T21:58:52.800Z,75.17
2018-10-06T22:01:22.675Z,75.13
2018-10-06T22:03:52.026Z,75.89
2018-10-06T22:06:21.561Z,76.48
2018-10-06T22:08:53.757Z,76.55
2018-10-06T22:11:23.960Z,77.37
2018-10-06T22:13:53.454Z,78.10
2018-10-06T22:16:23.939Z,77.72
2018-10-06T22:18:53.380Z,78.27
2018-10-06T22:21:22.974Z,78.02
2018-10-06T22:23:52.378Z,78.06
2018-10-06T22:26:21.988Z,78.18
2018-10-06T22:28:51.379Z,78.54
2018-10-06T22:31:20.775Z,78.26
2018-10-06T22:33:49.995Z,78.09
2018-10-06T22:36:19.963Z,78.61
2018-10-06T22:38:49.320Z,78.83
2018-10-06T22:41:19.358Z,79.07
2018-10-06T22:43:49.810Z,79.13
2018-10-06T22:46:19.260Z,79.71
2018-10-06T22:48:48.672Z,79.84
2018-10-06T22:51:18.133Z,80.08
2018-10-06T22:53:48.146Z,80.51
2018-10-06T22:56:17.646Z,80.68
2018-10-06T22:58:47.074Z,80.75
2018-10-06T23:01:17.169Z,80.28
2018-10-06T23:03:47.491Z,80.61
2018-10-06T23:06:17.043Z,80.92
2018-10-06T23:08:46.380Z,80.95
2018-10-06T23:11:15.847Z,80.97
2018-10-06T23:13:45.290Z,80.98
2018-10-06T23:16:14.690Z,81.23
2018-10-06T23:18:44.879Z,80.77
2018-10-06T23:21:14.241Z,80.50
2018-10-06T23:23:43.825Z,80.86
2018-10-06T23:26:13.343Z,80.59
2018-10-06T23:28:44.013Z,80.68
2018-10-06T23:31:13.517Z,80.88
2018-10-06T23:33:43.145Z,80.54
2018-10-06T23:36:12.535Z,80.99
2018-10-06T23:38:43.126Z,80.85
2018-10-06T23:41:12.698Z,81.20
2018-10-06T23:43:42.116Z,80.85
2018-10-06T23:46:11.747Z,81.23
2018-10-06T23:48:41.135Z,81.16
2018-10-06T23:51:10.540Z,81.81
2018-10-06T23:53:40.456Z,81.89
2018-10-06T23:56:09.918Z,82.29
2018-10-06T23:58:39.367Z,82.19
